Time;durP1;ratioP1;P1;durP2;ratioP2;P2;SDS_P1;SDS_P2;PMS_P1;PMS_P2;Temp;Humidity;BMP_temperature;BMP_pressure;BME280_temperature;BME280_humidity;BME280_pressure;Samples;Min_cycle;Max_cycle;Signal;HPM_P1;HPM_P2
2022/07/20 00:00:27;;;;;;;1.23;0.45;;;;;;;;;;4726574;30;20056;-53
2022/07/20 00:02:54;;;;;;;1.20;0.50;;;;;;;;;;4733993;30;20049;-49
2022/07/20 00:05:21;;;;;;;1.00;0.50;;;;;;;;;;4733564;30;20130;-54
2022/07/20 00:07:49;;;;;;;2.90;0.70;;;;;;;;;;4703772;30;20056;-54
2022/07/20 00:13:02;;;;;;;2.42;0.50;;;;;;;;;;4734028;30;20080;-52
2022/07/20 00:15:29;;;;;;;1.10;0.60;;;;;;;;;;4718469;30;20048;-51
2022/07/20 00:17:57;;;;;;;1.23;0.50;;;;;;;;;;4733510;30;20107;-52
2022/07/20 00:20:24;;;;;;;1.48;0.50;;;;;;;;;;4733502;30;20110;-52
2022/07/20 00:22:52;;;;;;;1.15;0.70;;;;;;;;;;4733630;30;20571;-53
2022/07/20 00:25:20;;;;;;;0.80;0.52;;;;;;;;;;4733720;30;20085;-50
2022/07/20 00:27:47;;;;;;;1.67;0.80;;;;;;;;;;4733657;30;20052;-50
2022/07/20 00:30:15;;;;;;;1.65;0.60;;;;;;;;;;4733330;30;20041;-53
2022/07/20 00:32:42;;;;;;;0.93;0.40;;;;;;;;;;4733497;30;20049;-55
2022/07/20 00:35:14;;;;;;;1.58;0.50;;;;;;;;;;4733707;30;20048;-54
2022/07/20 00:37:42;;;;;;;1.15;0.50;;;;;;;;;;4733566;30;20468;-53
2022/07/20 00:40:12;;;;;;;0.88;0.38;;;;;;;;;;4735431;30;20113;-51
2022/07/20 00:42:39;;;;;;;1.38;0.57;;;;;;;;;;4736938;30;20536;-53
2022/07/20 00:45:09;;;;;;;0.63;0.40;;;;;;;;;;4737063;30;20049;-53
2022/07/20 00:47:36;;;;;;;3.75;0.43;;;;;;;;;;4736854;30;20106;-53
2022/07/20 00:50:04;;;;;;;0.85;0.40;;;;;;;;;;4737524;30;20055;-53
2022/07/20 00:52:32;;;;;;;3.70;0.40;;;;;;;;;;4737040;30;20088;-55
2022/07/20 00:54:59;;;;;;;2.05;0.70;;;;;;;;;;4737074;30;20062;-53
2022/07/20 00:57:27;;;;;;;0.80;0.55;;;;;;;;;;4729606;30;20044;-51
2022/07/20 00:59:54;;;;;;;0.60;0.40;;;;;;;;;;4736677;30;20172;-53
2022/07/20 01:02:22;;;;;;;0.65;0.40;;;;;;;;;;4736992;30;20049;-55
2022/07/20 01:04:49;;;;;;;2.05;0.60;;;;;;;;;;4736960;30;20045;-53
2022/07/20 01:07:17;;;;;;;0.75;0.43;;;;;;;;;;4736956;30;20040;-51
2022/07/20 01:09:45;;;;;;;0.90;0.50;;;;;;;;;;4736630;30;20044;-51
2022/07/20 01:12:13;;;;;;;1.33;0.50;;;;;;;;;;4736657;30;20429;-51
2022/07/20 01:14:40;;;;;;;2.03;0.50;;;;;;;;;;4736438;30;20076;-54
2022/07/20 01:17:07;;;;;;;2.67;0.50;;;;;;;;;;4736573;30;20045;-54
2022/07/20 01:19:34;;;;;;;1.38;0.45;;;;;;;;;;4736557;30;20041;-54
2022/07/20 01:22:02;;;;;;;0.93;0.40;;;;;;;;;;4736749;30;20045;-53
2022/07/20 01:24:29;;;;;;;1.42;0.50;;;;;;;;;;4720533;30;20110;-54
2022/07/20 01:26:56;;;;;;;2.83;0.60;;;;;;;;;;4736473;30;20056;-51
2022/07/20 01:29:23;;;;;;;1.58;0.45;;;;;;;;;;4720831;30;20510;-54
2022/07/20 01:31:51;;;;;;;2.17;0.43;;;;;;;;;;4736165;30;20498;-56
2022/07/20 01:34:19;;;;;;;1.70;0.52;;;;;;;;;;4736452;30;20059;-52
2022/07/20 01:36:47;;;;;;;0.75;0.40;;;;;;;;;;4736264;30;20044;-55
2022/07/20 01:39:14;;;;;;;0.73;0.40;;;;;;;;;;4736238;30;20053;-54
2022/07/20 01:41:41;;;;;;;1.25;0.57;;;;;;;;;;4736327;30;20414;-52
2022/07/20 01:44:08;;;;;;;1.42;0.50;;;;;;;;;;4736219;30;20053;-52
2022/07/20 01:46:36;;;;;;;0.90;0.52;;;;;;;;;;4739742;30;20048;-51
2022/07/20 01:49:03;;;;;;;0.65;0.30;;;;;;;;;;4753624;30;20044;-51
2022/07/20 01:51:30;;;;;;;0.65;0.40;;;;;;;;;;4753621;30;20048;-54
2022/07/20 01:53:58;;;;;;;1.05;0.45;;;;;;;;;;4753472;30;20054;-52
2022/07/20 01:56:25;;;;;;;1.85;0.50;;;;;;;;;;4753908;30;20047;-54
2022/07/20 01:58:52;;;;;;;1.67;0.40;;;;;;;;;;4753456;30;20102;-53
2022/07/20 02:01:20;;;;;;;1.35;0.35;;;;;;;;;;4753258;30;20052;-55
2022/07/20 02:03:51;;;;;;;3.40;0.40;;;;;;;;;;4737926;30;20071;-54
2022/07/20 02:06:18;;;;;;;0.95;0.43;;;;;;;;;;4751588;30;20064;-52
2022/07/20 02:08:45;;;;;;;1.10;0.63;;;;;;;;;;4735765;30;20103;-54
2022/07/20 02:11:13;;;;;;;5.88;0.60;;;;;;;;;;4735645;30;20102;-52
2022/07/20 02:13:40;;;;;;;2.05;0.68;;;;;;;;;;4735648;30;20060;-54
2022/07/20 02:16:16;;;;;;;2.65;0.50;;;;;;;;;;4735802;30;20417;-54
2022/07/20 02:18:52;;;;;;;1.02;0.30;;;;;;;;;;4735374;30;20052;-55
2022/07/20 02:21:22;;;;;;;0.90;0.40;;;;;;;;;;4735404;30;20040;-55
2022/07/20 02:23:51;;;;;;;2.78;0.50;;;;;;;;;;4735397;30;20163;-47
2022/07/20 02:26:19;;;;;;;0.98;0.60;;;;;;;;;;4735473;30;20045;-52
2022/07/20 02:28:47;;;;;;;0.40;0.40;;;;;;;;;;4735258;30;20401;-52
2022/07/20 02:31:18;;;;;;;1.50;0.52;;;;;;;;;;4735090;30;20413;-50
2022/07/20 02:33:46;;;;;;;2.42;0.40;;;;;;;;;;4735336;30;20139;-54
2022/07/20 02:36:13;;;;;;;1.17;0.50;;;;;;;;;;4735204;30;20498;-55
2022/07/20 02:38:41;;;;;;;1.98;0.63;;;;;;;;;;4735460;30;20087;-53
2022/07/20 02:41:08;;;;;;;2.65;1.15;;;;;;;;;;4735039;30;20099;-53
2022/07/20 02:43:36;;;;;;;1.90;0.57;;;;;;;;;;4735066;30;20045;-53
2022/07/20 02:46:04;;;;;;;2.55;0.60;;;;;;;;;;4735255;30;20045;-50
2022/07/20 02:48:32;;;;;;;1.00;0.40;;;;;;;;;;4735219;30;20059;-53
2022/07/20 02:50:59;;;;;;;2.42;0.52;;;;;;;;;;4734945;30;20131;-53
2022/07/20 02:53:29;;;;;;;2.25;0.60;;;;;;;;;;4734581;30;20510;-54
2022/07/20 02:55:57;;;;;;;1.73;0.50;;;;;;;;;;4734967;30;20429;-49
2022/07/20 02:58:25;;;;;;;0.65;0.30;;;;;;;;;;4734655;30;20061;-51
2022/07/20 03:00:52;;;;;;;1.00;0.60;;;;;;;;;;4734901;30;20048;-52
2022/07/20 03:03:19;;;;;;;1.13;0.40;;;;;;;;;;4734262;30;20479;-55
2022/07/20 03:05:47;;;;;;;1.70;0.70;;;;;;;;;;4734469;30;20049;-49
2022/07/20 03:08:14;;;;;;;2.40;0.60;;;;;;;;;;4734713;30;20102;-53
2022/07/20 03:10:41;;;;;;;2.75;0.70;;;;;;;;;;4734475;30;20056;-50
2022/07/20 03:13:09;;;;;;;1.30;0.68;;;;;;;;;;4734886;30;20453;-54
2022/07/20 03:15:36;;;;;;;1.90;0.60;;;;;;;;;;4719251;30;20060;-52
2022/07/20 03:18:03;;;;;;;2.63;0.70;;;;;;;;;;4734719;30;20048;-51
2022/07/20 03:20:33;;;;;;;0.75;0.45;;;;;;;;;;4734574;30;20048;-54
2022/07/20 03:23:01;;;;;;;0.88;0.60;;;;;;;;;;4734657;30;20050;-54
2022/07/20 03:25:29;;;;;;;1.45;0.50;;;;;;;;;;4730967;30;20087;-54
2022/07/20 03:27:57;;;;;;;1.20;0.60;;;;;;;;;;4716964;30;20045;-53
2022/07/20 03:30:25;;;;;;;6.97;0.70;;;;;;;;;;4724564;30;20672;-49
2022/07/20 03:32:54;;;;;;;1.05;0.50;;;;;;;;;;4734396;30;20053;-53
2022/07/20 03:35:22;;;;;;;0.90;0.50;;;;;;;;;;4734223;30;20049;-54
2022/07/20 03:37:50;;;;;;;1.10;0.50;;;;;;;;;;4734122;30;20049;-54
2022/07/20 03:40:17;;;;;;;3.05;0.57;;;;;;;;;;4733867;30;20060;-53
2022/07/20 03:42:44;;;;;;;36.38;23.58;;;;;;;;;;4734346;30;20098;-49
2022/07/20 03:45:11;;;;;;;1.90;0.90;;;;;;;;;;4733999;30;20076;-50
2022/07/20 03:47:38;;;;;;;1.38;0.50;;;;;;;;;;4733958;30;20495;-53
2022/07/20 03:50:06;;;;;;;0.52;0.40;;;;;;;;;;4734305;30;20056;-49
2022/07/20 03:52:33;;;;;;;0.70;0.57;;;;;;;;;;4734122;30;20048;-49
2022/07/20 03:55:01;;;;;;;4.13;0.70;;;;;;;;;;4734455;30;20455;-55
2022/07/20 03:57:28;;;;;;;1.02;0.50;;;;;;;;;;4727025;30;20056;-50
2022/07/20 03:59:55;;;;;;;1.55;0.57;;;;;;;;;;4733712;30;20064;-52
2022/07/20 04:02:22;;;;;;;1.17;0.50;;;;;;;;;;4733989;30;20498;-53
2022/07/20 04:04:50;;;;;;;12.45;6.90;;;;;;;;;;4733741;30;20118;-56
2022/07/20 04:07:17;;;;;;;3.75;1.85;;;;;;;;;;4734014;30;20132;-52
2022/07/20 04:09:44;;;;;;;1.27;0.63;;;;;;;;;;4733892;30;20061;-54
2022/07/20 04:12:19;;;;;;;0.82;0.55;;;;;;;;;;4733854;30;20048;-54
2022/07/20 04:14:49;;;;;;;4.63;0.47;;;;;;;;;;4733075;30;20110;-50
2022/07/20 04:17:17;;;;;;;1.40;0.50;;;;;;;;;;4733665;30;20457;-50
2022/07/20 04:19:46;;;;;;;1.15;0.50;;;;;;;;;;4733880;30;20079;-53
2022/07/20 04:22:13;;;;;;;6.28;0.50;;;;;;;;;;4733809;30;20079;-51
2022/07/20 04:24:41;;;;;;;2.13;0.60;;;;;;;;;;4733522;30;20053;-51
2022/07/20 04:27:09;;;;;;;0.50;0.50;;;;;;;;;;4733686;30;20082;-53
2022/07/20 04:29:36;;;;;;;1.15;0.40;;;;;;;;;;4733262;30;20106;-51
2022/07/20 04:32:04;;;;;;;13.27;6.53;;;;;;;;;;4733719;30;20419;-51
2022/07/20 04:34:31;;;;;;;1.80;0.80;;;;;;;;;;4718397;30;20053;-55
2022/07/20 04:37:05;;;;;;;1.35;0.60;;;;;;;;;;4733744;30;20052;-52
2022/07/20 04:39:32;;;;;;;0.77;0.50;;;;;;;;;;4733680;30;20049;-55
2022/07/20 04:42:00;;;;;;;1.00;0.50;;;;;;;;;;4733612;30;20048;-52
2022/07/20 04:44:27;;;;;;;6.22;0.50;;;;;;;;;;4733419;30;20044;-55
2022/07/20 04:46:54;;;;;;;1.73;0.52;;;;;;;;;;4733285;30;20364;-52
2022/07/20 04:49:22;;;;;;;3.30;0.40;;;;;;;;;;4733554;30;20147;-51
2022/07/20 04:51:49;;;;;;;1.23;0.43;;;;;;;;;;4733571;30;20044;-53
2022/07/20 04:54:18;;;;;;;0.93;0.50;;;;;;;;;;4733448;30;20056;-52
2022/07/20 04:56:47;;;;;;;1.58;0.43;;;;;;;;;;4733214;30;20044;-53
2022/07/20 04:59:15;;;;;;;0.50;0.30;;;;;;;;;;4733285;30;20109;-52
2022/07/20 05:01:42;;;;;;;1.63;0.43;;;;;;;;;;4733736;30;20457;-54
2022/07/20 05:04:10;;;;;;;8.35;4.60;;;;;;;;;;4733093;30;20076;-49
2022/07/20 05:06:38;;;;;;;1.73;0.60;;;;;;;;;;4733175;30;20525;-54
2022/07/20 05:09:07;;;;;;;0.75;0.40;;;;;;;;;;4733473;30;20044;-51
2022/07/20 05:11:34;;;;;;;0.45;0.35;;;;;;;;;;4733433;30;20430;-54
2022/07/20 05:14:02;;;;;;;1.27;0.20;;;;;;;;;;4733574;30;20059;-54
2022/07/20 05:16:29;;;;;;;2.53;0.40;;;;;;;;;;4732999;30;20059;-52
2022/07/20 05:18:56;;;;;;;1.35;0.43;;;;;;;;;;4733034;30;20084;-51
2022/07/20 05:21:24;;;;;;;0.95;0.40;;;;;;;;;;4733304;30;20076;-55
2022/07/20 05:23:51;;;;;;;0.98;0.50;;;;;;;;;;4733101;30;20053;-55
2022/07/20 05:26:18;;;;;;;0.88;0.40;;;;;;;;;;4734931;30;20045;-50
2022/07/20 05:28:46;;;;;;;0.28;0.28;;;;;;;;;;4736353;30;20457;-52
2022/07/20 05:31:14;;;;;;;4.70;3.35;;;;;;;;;;4736341;30;20079;-53
2022/07/20 05:33:42;;;;;;;2.35;0.50;;;;;;;;;;4736199;30;20414;-49
2022/07/20 05:36:10;;;;;;;81.78;7.00;;;;;;;;;;4736430;30;20102;-52
2022/07/20 05:38:38;;;;;;;1.10;0.50;;;;;;;;;;4736371;30;20045;-50
2022/07/20 05:41:06;;;;;;;0.25;0.25;;;;;;;;;;4736229;30;20124;-51
2022/07/20 05:43:34;;;;;;;1.23;0.50;;;;;;;;;;4736538;30;20037;-55
2022/07/20 05:46:01;;;;;;;7.70;3.20;;;;;;;;;;4736309;30;20518;-51
2022/07/20 05:48:30;;;;;;;6.53;1.23;;;;;;;;;;4735782;30;20135;-52
2022/07/20 05:51:00;;;;;;;1.10;0.45;;;;;;;;;;4750578;30;20052;-52
2022/07/20 05:53:27;;;;;;;2.58;0.60;;;;;;;;;;4753620;30;20049;-52
2022/07/20 05:55:54;;;;;;;2.42;0.30;;;;;;;;;;4753490;30;20067;-51
2022/07/20 05:58:22;;;;;;;1.50;0.68;;;;;;;;;;4753322;30;20416;-53
2022/07/20 06:00:49;;;;;;;2.45;0.50;;;;;;;;;;4753418;30;20090;-55
2022/07/20 06:03:19;;;;;;;1.48;0.55;;;;;;;;;;4753704;30;20060;-51
2022/07/20 06:05:46;;;;;;;0.35;0.25;;;;;;;;;;4753198;30;20527;-48
2022/07/20 06:08:13;;;;;;;0.95;0.40;;;;;;;;;;4753524;30;20509;-53
2022/07/20 06:10:41;;;;;;;1.88;0.30;;;;;;;;;;4753518;30;20128;-55
2022/07/20 06:13:08;;;;;;;0.77;0.40;;;;;;;;;;4737923;30;20055;-49
2022/07/20 06:15:37;;;;;;;1.13;0.50;;;;;;;;;;4753166;30;20052;-52
2022/07/20 06:18:04;;;;;;;3.17;0.47;;;;;;;;;;4753323;30;20044;-56
2022/07/20 06:20:32;;;;;;;2.15;0.70;;;;;;;;;;4753579;30;20051;-51
2022/07/20 06:22:59;;;;;;;0.50;0.30;;;;;;;;;;4753039;30;20390;-54
2022/07/20 06:25:27;;;;;;;2.22;0.52;;;;;;;;;;4753165;30;20544;-55
2022/07/20 06:27:56;;;;;;;2.83;0.52;;;;;;;;;;4753049;30;20555;-52
2022/07/20 06:30:23;;;;;;;16.27;9.68;;;;;;;;;;4745485;30;20064;-51
2022/07/20 06:32:50;;;;;;;3.25;2.40;;;;;;;;;;4735280;30;20053;-51
2022/07/20 06:35:18;;;;;;;1.48;0.85;;;;;;;;;;4735371;30;20044;-48
2022/07/20 06:37:45;;;;;;;3.45;0.40;;;;;;;;;;4734652;30;20107;-55
2022/07/20 06:40:13;;;;;;;4.63;0.57;;;;;;;;;;4734981;30;20053;-49
2022/07/20 06:42:40;;;;;;;3.85;0.40;;;;;;;;;;4735033;30;20414;-53
2022/07/20 06:45:07;;;;;;;2.67;0.50;;;;;;;;;;4735130;30;20123;-55
2022/07/20 06:47:35;;;;;;;2.65;0.90;;;;;;;;;;4735241;30;20084;-55
2022/07/20 06:50:04;;;;;;;1.42;0.40;;;;;;;;;;4735286;30;20044;-54
2022/07/20 06:52:32;;;;;;;5.30;2.00;;;;;;;;;;4734987;30;20092;-55
2022/07/20 06:55:01;;;;;;;2.17;0.57;;;;;;;;;;4735263;30;20048;-52
2022/07/20 06:57:29;;;;;;;3.55;0.47;;;;;;;;;;4728111;30;20052;-55
2022/07/20 06:59:56;;;;;;;1.38;0.40;;;;;;;;;;4734665;30;20052;-51
2022/07/20 07:02:23;;;;;;;4.55;0.50;;;;;;;;;;4734956;30;20104;-49
2022/07/20 07:04:51;;;;;;;2.00;0.57;;;;;;;;;;4734843;30;20069;-57
2022/07/20 07:07:18;;;;;;;0.43;0.30;;;;;;;;;;4734616;30;20541;-50
2022/07/20 07:09:45;;;;;;;3.05;0.60;;;;;;;;;;4734716;30;20056;-52
2022/07/20 07:12:12;;;;;;;1.80;0.60;;;;;;;;;;4734827;30;20112;-54
2022/07/20 07:14:41;;;;;;;3.78;1.15;;;;;;;;;;4734448;30;20052;-50
2022/07/20 07:17:08;;;;;;;2.83;0.50;;;;;;;;;;4734550;30;20052;-50
2022/07/20 07:19:35;;;;;;;2.05;0.30;;;;;;;;;;4734984;30;20052;-48
2022/07/20 07:22:02;;;;;;;0.75;0.30;;;;;;;;;;4734641;30;20098;-51
2022/07/20 07:24:31;;;;;;;4.05;0.60;;;;;;;;;;4734749;30;20079;-51
2022/07/20 07:26:58;;;;;;;7.75;1.40;;;;;;;;;;4734368;30;20044;-47
2022/07/20 07:29:28;;;;;;;2.35;1.10;;;;;;;;;;4734140;30;20053;-44
2022/07/20 07:32:01;;;;;;;2.40;0.43;;;;;;;;;;4734423;30;20580;-53
2022/07/20 07:34:29;;;;;;;2.50;0.50;;;;;;;;;;4734343;30;20057;-53
2022/07/20 07:36:56;;;;;;;2.30;0.60;;;;;;;;;;4734318;30;20147;-50
2022/07/20 07:39:23;;;;;;;1.90;0.50;;;;;;;;;;4734096;30;20477;-50
2022/07/20 07:41:51;;;;;;;2.35;0.50;;;;;;;;;;4734343;30;20434;-52
2022/07/20 07:44:18;;;;;;;3.45;0.50;;;;;;;;;;4734149;30;20052;-51
2022/07/20 07:46:45;;;;;;;2.45;0.65;;;;;;;;;;4734128;30;20513;-55
2022/07/20 07:49:12;;;;;;;2.80;0.60;;;;;;;;;;4734237;30;20099;-55
2022/07/20 07:51:40;;;;;;;1.92;0.38;;;;;;;;;;4733966;30;20056;-55
2022/07/20 07:54:07;;;;;;;4.38;0.57;;;;;;;;;;4733865;30;20053;-50
2022/07/20 07:56:35;;;;;;;2.00;0.47;;;;;;;;;;4734251;30;20037;-50
2022/07/20 07:59:03;;;;;;;1.20;0.35;;;;;;;;;;4734180;30;20065;-47
2022/07/20 08:01:51;;;;;;;1.85;0.28;;;;;;;;;;4734037;30;20051;-51
2022/07/20 08:04:18;;;;;;;5.63;0.85;;;;;;;;;;4734073;30;20056;-49
2022/07/20 08:06:47;;;;;;;1.77;0.52;;;;;;;;;;4718027;30;20090;-49
2022/07/20 08:09:14;;;;;;;0.60;0.40;;;;;;;;;;4733951;30;20123;-51
2022/07/20 08:11:41;;;;;;;4.20;1.08;;;;;;;;;;4733835;30;20052;-49
2022/07/20 08:14:09;;;;;;;5.47;0.85;;;;;;;;;;4733695;30;20072;-55
2022/07/20 08:16:36;;;;;;;6.32;0.65;;;;;;;;;;4733945;30;20051;-47
2022/07/20 08:19:03;;;;;;;3.78;0.60;;;;;;;;;;4734055;30;20453;-50
2022/07/20 08:21:31;;;;;;;0.65;0.43;;;;;;;;;;4733987;30;20068;-55
2022/07/20 08:24:03;;;;;;;1.13;0.50;;;;;;;;;;4734051;30;20060;-50
2022/07/20 08:26:31;;;;;;;2.60;0.50;;;;;;;;;;4733627;30;20131;-56
2022/07/20 08:28:59;;;;;;;4.00;0.80;;;;;;;;;;4733595;30;20083;-56
2022/07/20 08:31:26;;;;;;;1.35;0.60;;;;;;;;;;4733527;30;20518;-52
2022/07/20 08:33:53;;;;;;;0.95;0.60;;;;;;;;;;4733562;30;20084;-52
2022/07/20 08:36:21;;;;;;;2.92;0.50;;;;;;;;;;4733556;30;20053;-55
2022/07/20 08:38:51;;;;;;;18.10;11.02;;;;;;;;;;4733756;30;20107;-48
2022/07/20 08:41:19;;;;;;;1.67;0.50;;;;;;;;;;4733632;30;20037;-52
2022/07/20 08:43:46;;;;;;;1.98;0.60;;;;;;;;;;4733442;30;20526;-50
2022/07/20 08:46:13;;;;;;;4.80;0.80;;;;;;;;;;4733369;30;20060;-50
2022/07/20 08:48:42;;;;;;;1.30;0.50;;;;;;;;;;4733561;30;20044;-48
2022/07/20 08:51:09;;;;;;;3.05;0.60;;;;;;;;;;4733483;30;20110;-51
2022/07/20 08:53:37;;;;;;;1.60;0.40;;;;;;;;;;4733076;30;20045;-48
2022/07/20 08:56:09;;;;;;;1.53;0.43;;;;;;;;;;4733373;30;20148;-49
2022/07/20 08:58:36;;;;;;;1.77;0.40;;;;;;;;;;4733246;30;20702;-47
2022/07/20 09:01:05;;;;;;;4.53;0.90;;;;;;;;;;4734998;30;20122;-59
2022/07/20 09:03:33;;;;;;;3.33;0.80;;;;;;;;;;4737120;30;20041;-52
2022/07/20 09:06:06;;;;;;;5.68;0.88;;;;;;;;;;4736972;30;20060;-56
2022/07/20 09:08:35;;;;;;;2.85;0.85;;;;;;;;;;4737189;30;20106;-52
2022/07/20 09:11:03;;;;;;;3.25;0.50;;;;;;;;;;4737024;30;20040;-52
2022/07/20 09:13:34;;;;;;;2.13;0.70;;;;;;;;;;4736709;30;20048;-51
2022/07/20 09:16:02;;;;;;;2.97;1.30;;;;;;;;;;4736796;30;20048;-57
2022/07/20 09:18:34;;;;;;;60.10;42.10;;;;;;;;;;4736730;30;20119;-55
2022/07/20 09:21:04;;;;;;;3.67;0.88;;;;;;;;;;4736490;30;20546;-55
2022/07/20 09:23:41;;;;;;;0.75;0.65;;;;;;;;;;4736626;30;20051;-57
2022/07/20 09:26:15;;;;;;;2.25;0.70;;;;;;;;;;4736566;30;20048;-51
2022/07/20 09:28:48;;;;;;;1.38;0.70;;;;;;;;;;4736400;30;20522;-51
2022/07/20 09:31:22;;;;;;;2.92;0.50;;;;;;;;;;4736459;30;20057;-53
2022/07/20 09:33:57;;;;;;;2.05;0.60;;;;;;;;;;4736236;30;20488;-54
2022/07/20 09:36:27;;;;;;;6.68;1.00;;;;;;;;;;4736101;30;20060;-55
2022/07/20 09:39:09;;;;;;;5.20;0.80;;;;;;;;;;4736154;30;20060;-50
2022/07/20 09:41:41;;;;;;;2.90;0.70;;;;;;;;;;4736407;30;20125;-52
2022/07/20 09:44:19;;;;;;;3.50;0.60;;;;;;;;;;4736172;30;20054;-51
2022/07/20 09:46:46;;;;;;;10.10;4.55;;;;;;;;;;4735955;30;20421;-55
2022/07/20 09:49:14;;;;;;;1.73;1.08;;;;;;;;;;4737679;30;20414;-54
2022/07/20 09:51:45;;;;;;;1.33;0.60;;;;;;;;;;4753721;30;20529;-51
2022/07/20 09:54:17;;;;;;;1.70;0.40;;;;;;;;;;4753695;30;20048;-47
2022/07/20 09:56:50;;;;;;;2.38;0.55;;;;;;;;;;4753695;30;20413;-57
2022/07/20 09:59:19;;;;;;;4.68;0.77;;;;;;;;;;4753462;30;20139;-55
2022/07/20 10:01:50;;;;;;;2.30;0.68;;;;;;;;;;4753746;30;20052;-49
2022/07/20 10:04:19;;;;;;;4.85;1.25;;;;;;;;;;4753341;30;20056;-52
2022/07/20 10:06:48;;;;;;;11.98;7.07;;;;;;;;;;4753408;30;20482;-51
2022/07/20 10:09:17;;;;;;;2.25;0.85;;;;;;;;;;4753397;30;20048;-52
2022/07/20 10:11:45;;;;;;;1.52;0.63;;;;;;;;;;4753213;30;20052;-54
2022/07/20 10:14:17;;;;;;;0.90;0.47;;;;;;;;;;4753543;30;20080;-50
2022/07/20 10:16:54;;;;;;;1.02;0.60;;;;;;;;;;4753353;30;20086;-56
2022/07/20 10:19:42;;;;;;;1.88;0.47;;;;;;;;;;4753356;30;20121;-53
2022/07/20 10:22:12;;;;;;;3.63;0.60;;;;;;;;;;4752934;30;20052;-49
2022/07/20 10:24:42;;;;;;;6.35;1.40;;;;;;;;;;4752920;30;20044;-53
2022/07/20 10:27:16;;;;;;;4.22;0.60;;;;;;;;;;4753277;30;20040;-51
2022/07/20 10:29:49;;;;;;;3.88;0.60;;;;;;;;;;4750530;30;20041;-52
2022/07/20 10:32:30;;;;;;;2.75;0.57;;;;;;;;;;4735389;30;20413;-51
2022/07/20 10:35:00;;;;;;;5.25;0.70;;;;;;;;;;4735352;30;20044;-50
2022/07/20 10:37:36;;;;;;;3.40;0.70;;;;;;;;;;4735645;30;20053;-56
2022/07/20 10:40:17;;;;;;;3.95;0.50;;;;;;;;;;4735512;30;20049;-51
2022/07/20 10:43:12;;;;;;;0.50;0.38;;;;;;;;;;4735500;30;20052;-56
2022/07/20 10:45:41;;;;;;;1.35;0.70;;;;;;;;;;4735405;30;20075;-54
2022/07/20 10:48:11;;;;;;;5.60;2.78;;;;;;;;;;4735141;30;20053;-51
2022/07/20 10:50:41;;;;;;;5.85;0.68;;;;;;;;;;4734830;30;20115;-48
2022/07/20 10:53:12;;;;;;;1.38;0.50;;;;;;;;;;4734915;30;20128;-52
2022/07/20 10:55:50;;;;;;;0.50;0.50;;;;;;;;;;4734965;30;20510;-55
2022/07/20 10:58:25;;;;;;;3.20;0.70;;;;;;;;;;4734566;30;20119;-50
2022/07/20 11:00:59;;;;;;;2.80;0.45;;;;;;;;;;4735114;30;20041;-49
2022/07/20 11:03:39;;;;;;;1.70;0.43;;;;;;;;;;4734996;30;20084;-49
2022/07/20 11:06:12;;;;;;;1.23;0.52;;;;;;;;;;4735117;30;20053;-50
2022/07/20 11:08:49;;;;;;;4.40;0.57;;;;;;;;;;4734674;30;20391;-50
2022/07/20 11:11:29;;;;;;;2.00;0.65;;;;;;;;;;4734409;30;20510;-51
2022/07/20 11:13:56;;;;;;;2.65;0.60;;;;;;;;;;4734703;30;20102;-54
2022/07/20 11:16:26;;;;;;;1.80;0.65;;;;;;;;;;4734563;30;20056;-55
2022/07/20 11:18:55;;;;;;;2.58;0.60;;;;;;;;;;4733634;30;20057;-52
2022/07/20 11:21:32;;;;;;;2.35;0.50;;;;;;;;;;4734233;30;20075;-55
2022/07/20 11:24:05;;;;;;;1.25;0.50;;;;;;;;;;4734413;30;20417;-51
2022/07/20 11:26:33;;;;;;;2.05;0.65;;;;;;;;;;4734801;30;20079;-49
2022/07/20 11:29:00;;;;;;;15.82;7.65;;;;;;;;;;4734385;30;20044;-52
2022/07/20 11:31:29;;;;;;;2.65;1.20;;;;;;;;;;4734348;30;20086;-49
2022/07/20 11:33:58;;;;;;;3.90;0.50;;;;;;;;;;4734508;30;20052;-54
2022/07/20 11:36:27;;;;;;;1.15;0.50;;;;;;;;;;4734214;30;20111;-53
2022/07/20 11:38:57;;;;;;;2.10;0.65;;;;;;;;;;4718117;30;20110;-49
2022/07/20 11:41:30;;;;;;;2.20;0.60;;;;;;;;;;4733985;30;20502;-54
2022/07/20 11:43:58;;;;;;;;;;;;;;;;;;4734532;30;20115;-53
2022/07/20 11:46:27;;;;;;;2.83;0.60;;;;;;;;;;4734111;30;19926;-55
2022/07/20 11:49:06;;;;;;;1.75;0.60;;;;;;;;;;4734235;30;20087;-56
2022/07/20 11:51:57;;;;;;;1.17;0.47;;;;;;;;;;4718293;30;20677;-52
2022/07/20 11:54:28;;;;;;;2.53;0.50;;;;;;;;;;4734012;30;20422;-53
2022/07/20 11:56:56;;;;;;;1.20;0.60;;;;;;;;;;4733925;30;20056;-50
2022/07/20 11:59:24;;;;;;;9.85;5.18;;;;;;;;;;4733858;30;20426;-52
2022/07/20 12:01:53;;;;;;;2.75;0.60;;;;;;;;;;4733973;30;20076;-52
2022/07/20 12:04:24;;;;;;;0.80;0.60;;;;;;;;;;4733956;30;20053;-49
2022/07/20 12:06:54;;;;;;;0.85;0.50;;;;;;;;;;4733816;30;20045;-54
2022/07/20 12:09:31;;;;;;;2.70;1.00;;;;;;;;;;4733972;30;20044;-52
2022/07/20 12:12:05;;;;;;;1.95;0.57;;;;;;;;;;4733958;30;20040;-50
2022/07/20 12:14:39;;;;;;;4.80;0.55;;;;;;;;;;4733839;30;20115;-51
2022/07/20 12:17:30;;;;;;;1.98;0.80;;;;;;;;;;4733712;30;20061;-56
2022/07/20 12:19:59;;;;;;;3.85;0.60;;;;;;;;;;4733837;30;20063;-50
2022/07/20 12:22:31;;;;;;;2.55;0.60;;;;;;;;;;4733738;30;20060;-50
2022/07/20 12:25:09;;;;;;;5.25;2.47;;;;;;;;;;4733322;30;20064;-48
2022/07/20 12:27:38;;;;;;;10.85;7.00;;;;;;;;;;4733782;30;20560;-55
2022/07/20 12:30:34;;;;;;;9.20;8.40;;;;;;;;;;4733549;30;20079;-51
2022/07/20 12:33:08;;;;;;;2.58;0.50;;;;;;;;;;4733523;30;20052;-53
2022/07/20 12:35:38;;;;;;;1.27;0.50;;;;;;;;;;4732977;30;20044;-51
2022/07/20 12:38:05;;;;;;;1.58;0.80;;;;;;;;;;4733993;30;20564;-54
2022/07/20 12:40:34;;;;;;;1.95;0.45;;;;;;;;;;4733518;30;20057;-55
2022/07/20 12:43:02;;;;;;;4.25;0.40;;;;;;;;;;4733469;30;20045;-56
2022/07/20 12:45:30;;;;;;;2.05;0.45;;;;;;;;;;4733767;30;20051;-56
2022/07/20 12:47:57;;;;;;;2.78;0.60;;;;;;;;;;4733378;30;20051;-52
2022/07/20 12:50:37;;;;;;;2.97;1.08;;;;;;;;;;4727603;30;20049;-51
2022/07/20 12:53:04;;;;;;;1.00;0.60;;;;;;;;;;4733620;30;20521;-54
2022/07/20 12:55:31;;;;;;;2.38;0.60;;;;;;;;;;4733448;30;20040;-55
2022/07/20 12:57:58;;;;;;;2.20;0.60;;;;;;;;;;4733598;30;20053;-51
2022/07/20 13:00:26;;;;;;;1.30;0.57;;;;;;;;;;4733340;30;20411;-50
2022/07/20 13:02:53;;;;;;;2.63;0.60;;;;;;;;;;4733501;30;20044;-55
2022/07/20 13:05:21;;;;;;;1.65;0.77;;;;;;;;;;4733538;30;20540;-51
2022/07/20 13:07:48;;;;;;;3.85;0.70;;;;;;;;;;4733488;30;20533;-54
2022/07/20 13:10:15;;;;;;;19.10;1.17;;;;;;;;;;4733214;30;20076;-55
2022/07/20 13:12:42;;;;;;;3.13;0.60;;;;;;;;;;4733298;30;20521;-51
2022/07/20 13:15:10;;;;;;;1.23;0.50;;;;;;;;;;4733286;30;20087;-49
2022/07/20 13:17:57;;;;;;;3.05;0.80;;;;;;;;;;4733380;30;20098;-50
2022/07/20 13:20:27;;;;;;;2.05;0.60;;;;;;;;;;4733334;30;20568;-50
2022/07/20 13:22:54;;;;;;;0.80;0.55;;;;;;;;;;4733045;30;20119;-55
2022/07/20 13:25:23;;;;;;;1.17;0.40;;;;;;;;;;4733063;30;20041;-50
2022/07/20 13:27:51;;;;;;;4.38;0.90;;;;;;;;;;4733189;30;20477;-56
2022/07/20 13:30:18;;;;;;;1.10;0.50;;;;;;;;;;4728232;30;20048;-49
2022/07/20 13:32:46;;;;;;;1.05;0.50;;;;;;;;;;4733255;30;20083;-53
2022/07/20 13:35:13;;;;;;;1.00;0.50;;;;;;;;;;4733371;30;20780;-51
2022/07/20 13:37:41;;;;;;;5.68;0.60;;;;;;;;;;4733102;30;20502;-50
2022/07/20 13:40:10;;;;;;;1.90;0.50;;;;;;;;;;4733033;30;20049;-51
2022/07/20 13:42:38;;;;;;;1.42;0.50;;;;;;;;;;4733366;30;20060;-50
2022/07/20 13:45:06;;;;;;;3.33;0.63;;;;;;;;;;4733139;30;20049;-55
2022/07/20 13:47:39;;;;;;;2.67;0.57;;;;;;;;;;4735498;30;20045;-53
2022/07/20 13:50:10;;;;;;;3.42;0.60;;;;;;;;;;4736270;30;20131;-55
2022/07/20 13:52:39;;;;;;;27.67;18.08;;;;;;;;;;4736177;30;20110;-47
2022/07/20 13:55:09;;;;;;;3.10;1.15;;;;;;;;;;4736227;30;20057;-54
2022/07/20 13:57:37;;;;;;;2.80;0.57;;;;;;;;;;4736244;30;20510;-55
2022/07/20 14:00:08;;;;;;;2.00;0.40;;;;;;;;;;4736000;30;20065;-55
2022/07/20 14:02:38;;;;;;;;;;;;;;;;;;4735960;30;20052;-48
2022/07/20 14:05:07;;;;;;;0.90;0.52;;;;;;;;;;4736085;30;20009;-55
2022/07/20 14:07:34;;;;;;;2.90;0.65;;;;;;;;;;4736113;30;20049;-48
2022/07/20 14:10:04;;;;;;;1.73;0.57;;;;;;;;;;4735884;30;20581;-49
2022/07/20 14:12:35;;;;;;;4.00;0.68;;;;;;;;;;4736081;30;20041;-47
2022/07/20 14:15:03;;;;;;;7.20;4.00;;;;;;;;;;4735692;30;20070;-48
2022/07/20 14:17:31;;;;;;;1.40;0.50;;;;;;;;;;4735531;30;20540;-52
2022/07/20 14:19:58;;;;;;;5.85;1.05;;;;;;;;;;4735533;30;20056;-50
2022/07/20 14:22:25;;;;;;;0.98;0.82;;;;;;;;;;4735942;30;20073;-51
2022/07/20 14:24:52;;;;;;;3.33;0.77;;;;;;;;;;4735674;30;20075;-51
2022/07/20 14:27:20;;;;;;;4.60;0.80;;;;;;;;;;4744809;30;20063;-52
2022/07/20 14:29:47;;;;;;;3.97;0.52;;;;;;;;;;4750091;30;20048;-47
2022/07/20 14:32:15;;;;;;;1.27;0.60;;;;;;;;;;4735367;30;20045;-49
2022/07/20 14:34:42;;;;;;;2.35;0.68;;;;;;;;;;4735572;30;20383;-51
2022/07/20 14:37:11;;;;;;;1.33;0.90;;;;;;;;;;4735187;30;20110;-52
2022/07/20 14:39:38;;;;;;;9.20;6.47;;;;;;;;;;4735526;30;20060;-47
2022/07/20 14:42:06;;;;;;;4.90;0.70;;;;;;;;;;4735294;30;20053;-50
2022/07/20 14:44:34;;;;;;;2.92;0.52;;;;;;;;;;4719755;30;20061;-51
2022/07/20 14:47:02;;;;;;;2.20;0.60;;;;;;;;;;4735087;30;20060;-51
2022/07/20 14:49:35;;;;;;;1.40;0.60;;;;;;;;;;4729359;30;20060;-49
2022/07/20 14:52:03;;;;;;;2.03;0.60;;;;;;;;;;4735345;30;20056;-51
2022/07/20 14:54:30;;;;;;;4.07;0.73;;;;;;;;;;4719485;30;20052;-52
2022/07/20 14:56:57;;;;;;;0.50;0.50;;;;;;;;;;4734786;30;20059;-49